createdAt,value
2022-12-16T00:01:19.933Z,99384.56
2022-12-16T00:03:51.797Z,99390.53
2022-12-16T00:06:21.265Z,99387.19
2022-12-16T00:08:49.981Z,99375.91
2022-12-16T00:11:20.460Z,99383.03
2022-12-16T00:13:49.396Z,99385.81
2022-12-16T00:16:20.199Z,99377.19
2022-12-16T00:18:49.550Z,99372.88
2022-12-16T00:21:20.921Z,99373.84
2022-12-16T00:23:49.779Z,99374.16
2022-12-16T00:26:18.180Z,99376.94
2022-12-16T00:28:46.953Z,99378.91
2022-12-16T00:31:16.219Z,99378.34
2022-12-16T00:33:45.801Z,99379.16
2022-12-16T00:36:14.290Z,99388.09
2022-12-16T00:38:43.101Z,99382.94
2022-12-16T00:41:11.580Z,99388.38
2022-12-16T00:43:40.672Z,99380.72
2022-12-16T00:46:09.271Z,99381.00
2022-12-16T00:48:39.201Z,99388.94
2022-12-16T00:51:07.650Z,99379.75
2022-12-16T00:53:36.992Z,99388.38
2022-12-16T00:56:08.057Z,99384.31
2022-12-16T00:58:37.771Z,99394.81
2022-12-16T01:01:08.353Z,99384.59
2022-12-16T01:03:37.792Z,99391.56
2022-12-16T01:06:15.326Z,99408.28
2022-12-16T01:08:51.231Z,99403.13
2022-12-16T01:11:20.823Z,99404.94
2022-12-16T01:13:52.768Z,99412.19
2022-12-16T01:16:23.778Z,99406.06
2022-12-16T01:18:53.670Z,99408.72
2022-12-16T01:21:23.960Z,99415.97
2022-12-16T01:23:53.048Z,99399.66
2022-12-16T01:26:23.659Z,99401.03
2022-12-16T01:28:52.550Z,99402.03
2022-12-16T01:31:21.350Z,99391.56
2022-12-16T01:33:51.351Z,99383.22
2022-12-16T01:36:20.240Z,99383.91
2022-12-16T01:38:49.101Z,99391.84
2022-12-16T01:41:17.723Z,99399.66
2022-12-16T01:43:46.707Z,99395.34
2022-12-16T01:46:15.022Z,99400.47
2022-12-16T01:48:59.590Z,99383.63
2022-12-16T01:51:41.282Z,99393.97
2022-12-16T01:57:24.881Z,99388.09
2022-12-16T01:59:55.220Z,99377.78
2022-12-16T02:02:24.205Z,99386.28
2022-12-16T02:05:11.891Z,99376.97
2022-12-16T02:07:40.361Z,99386.72
2022-12-16T02:13:59.549Z,99387.97
2022-12-16T02:16:52.565Z,99388.09
2022-12-16T02:19:35.112Z,99378.91
2022-12-16T02:22:35.761Z,99374.19
2022-12-16T02:25:40.842Z,99389.75
2022-12-16T02:32:25.092Z,99374.44
2022-12-16T02:35:26.153Z,99376.81
2022-12-16T02:38:23.604Z,99380.03
2022-12-16T02:41:18.281Z,99376.97
2022-12-16T02:46:59.420Z,99387.97
2022-12-16T02:49:28.740Z,99399.25
2022-12-16T02:51:58.291Z,99410.22
2022-12-16T02:54:28.382Z,99427.66
2022-12-16T02:57:06.474Z,99434.84
2022-12-16T03:00:08.399Z,99432.38
2022-12-16T03:03:02.438Z,99447.38
2022-12-16T03:05:48.368Z,99441.25
2022-12-16T03:08:46.000Z,99424.56
2022-12-16T03:11:15.853Z,99404.66
2022-12-16T03:13:50.443Z,99398.53
2022-12-16T03:16:22.482Z,99411.75
2022-12-16T03:22:00.964Z,99422.59
2022-12-16T03:24:29.672Z,99428.59
2022-12-16T03:27:46.411Z,99424.53
2022-12-16T03:30:18.282Z,99420.09
2022-12-16T03:33:08.090Z,99424.53
2022-12-16T03:36:20.473Z,99419.69
2022-12-16T03:38:50.029Z,99426.75
2022-12-16T03:41:18.960Z,99422.84
2022-12-16T03:43:48.541Z,99416.03
2022-12-16T03:46:17.518Z,99412.56
2022-12-16T03:48:55.451Z,99408.25
2022-12-16T03:54:28.953Z,99418.25
2022-12-16T03:56:57.662Z,99432.59
2022-12-16T03:59:26.221Z,99431.22
2022-12-16T04:01:55.470Z,99435.16
2022-12-16T04:04:24.579Z,99437.22
2022-12-16T04:07:13.278Z,99435.72
2022-12-16T04:09:41.799Z,99435.44
2022-12-16T04:12:29.305Z,99437.13
2022-12-16T04:15:16.222Z,99443.28
2022-12-16T04:18:03.624Z,99435.06
2022-12-16T04:20:52.774Z,99443.53
2022-12-16T04:23:44.005Z,99439.09
2022-12-16T04:26:27.593Z,99444.41
2022-12-16T04:28:56.332Z,99448.16
2022-12-16T04:31:25.129Z,99443.00
2022-12-16T04:34:12.555Z,99442.03
2022-12-16T04:36:59.663Z,99440.06
2022-12-16T04:39:47.116Z,99428.78
2022-12-16T04:45:58.246Z,99456.63
2022-12-16T04:48:45.642Z,99457.34
2022-12-16T04:51:32.464Z,99465.28
2022-12-16T04:54:19.941Z,99470.84
2022-12-16T04:57:06.627Z,99468.75
2022-12-16T05:00:01.153Z,99455.75
2022-12-16T05:02:48.177Z,99467.16
2022-12-16T05:05:37.225Z,99467.81
2022-12-16T05:08:24.597Z,99461.81
2022-12-16T05:11:11.733Z,99470.16
2022-12-16T05:13:58.563Z,99462.59
2022-12-16T05:16:45.833Z,99450.56
2022-12-16T05:19:32.858Z,99451.94
2022-12-16T05:22:21.484Z,99445.06
2022-12-16T05:25:08.413Z,99453.81
2022-12-16T05:27:55.892Z,99455.50
2022-12-16T05:34:06.333Z,99461.28
2022-12-16T05:36:53.934Z,99459.00
2022-12-16T05:39:41.253Z,99470.41
2022-12-16T05:42:28.473Z,99474.28
2022-12-16T05:45:15.412Z,99463.13
2022-12-16T05:48:03.375Z,99466.94
2022-12-16T05:50:50.204Z,99471.63
2022-12-16T05:53:37.356Z,99471.31
2022-12-16T05:56:24.737Z,99470.19
2022-12-16T05:59:12.068Z,99466.69
2022-12-16T06:01:58.860Z,99476.25
2022-12-16T06:04:46.402Z,99468.50
2022-12-16T06:07:33.122Z,99471.56
2022-12-16T06:10:20.536Z,99472.78
2022-12-16T06:13:07.148Z,99464.94
2022-12-16T06:15:54.401Z,99466.38
2022-12-16T06:18:41.561Z,99470.06
2022-12-16T06:21:28.662Z,99469.19
2022-12-16T06:24:15.401Z,99469.44
2022-12-16T06:27:03.463Z,99488.47
2022-12-16T06:29:50.405Z,99487.03
2022-12-16T06:32:37.622Z,99487.84
2022-12-16T06:35:25.011Z,99485.06
2022-12-16T06:38:12.004Z,99489.16
2022-12-16T06:40:58.876Z,99491.03
2022-12-16T06:43:46.339Z,99484.38
2022-12-16T06:46:33.251Z,99507.56
2022-12-16T06:49:21.614Z,99502.81
2022-12-16T06:52:08.561Z,99498.44
2022-12-16T06:54:56.076Z,99487.81
2022-12-16T06:57:43.028Z,99501.38
2022-12-16T07:00:31.542Z,99506.56
2022-12-16T07:03:18.481Z,99520.28
2022-12-16T07:06:06.020Z,99521.41
2022-12-16T07:08:53.633Z,99509.56
2022-12-16T07:11:41.028Z,99506.38
2022-12-16T07:14:28.608Z,99506.78
2022-12-16T07:17:17.518Z,99526.47
2022-12-16T07:20:05.098Z,99537.34
2022-12-16T07:23:00.991Z,99535.28
2022-12-16T07:25:51.736Z,99540.19
2022-12-16T07:28:39.096Z,99549.94
2022-12-16T07:31:26.453Z,99551.75
2022-12-16T07:34:15.065Z,99542.69
2022-12-16T07:37:02.324Z,99557.38
2022-12-16T07:39:54.908Z,99560.31
2022-12-16T07:42:42.733Z,99565.06
2022-12-16T07:45:30.232Z,99566.47
2022-12-16T07:48:17.558Z,99567.59
2022-12-16T07:51:04.566Z,99572.47
2022-12-16T07:53:51.324Z,99576.09
2022-12-16T07:56:38.957Z,99577.38
2022-12-16T07:59:25.709Z,99597.88
2022-12-16T08:02:14.037Z,99589.75
2022-12-16T08:05:01.099Z,99598.25
2022-12-16T08:07:48.304Z,99597.13
2022-12-16T08:10:35.158Z,99605.25
2022-12-16T08:13:32.259Z,99603.56
2022-12-16T08:16:19.272Z,99608.28
2022-12-16T08:19:10.949Z,99612.75
2022-12-16T08:21:58.148Z,99620.00
2022-12-16T08:24:51.596Z,99630.03
2022-12-16T08:27:41.058Z,99628.50
2022-12-16T08:30:29.408Z,99632.13
2022-12-16T08:33:19.703Z,99623.59
2022-12-16T08:36:18.479Z,99642.56
2022-12-16T08:39:05.247Z,99664.72
2022-12-16T08:41:52.488Z,99658.75
2022-12-16T08:44:39.509Z,99636.13
2022-12-16T08:47:26.801Z,99648.66
2022-12-16T08:50:13.559Z,99664.72
2022-12-16T08:53:02.000Z,99673.75
2022-12-16T08:55:48.909Z,99668.72
2022-12-16T08:58:37.197Z,99675.97
2022-12-16T09:01:24.314Z,99670.94
2022-12-16T09:04:11.676Z,99664.81
2022-12-16T09:06:58.998Z,99671.91
2022-12-16T09:09:46.487Z,99673.84
2022-12-16T09:12:33.509Z,99683.69
2022-12-16T09:15:20.663Z,99685.63
2022-12-16T09:18:15.532Z,99677.00
2022-12-16T09:21:04.009Z,99663.06
2022-12-16T09:23:51.197Z,99670.28
2022-12-16T09:26:38.967Z,99677.66
2022-12-16T09:29:25.878Z,99683.94
2022-12-16T09:32:13.043Z,99691.03
2022-12-16T09:34:59.839Z,99692.81
2022-12-16T09:37:46.922Z,99679.75
2022-12-16T09:40:35.186Z,99668.72
2022-12-16T09:43:45.487Z,99673.03
2022-12-16T09:47:25.778Z,99673.03
2022-12-16T09:50:14.381Z,99662.72
2022-12-16T09:53:07.590Z,99667.19
2022-12-16T09:56:01.895Z,99662.03
2022-12-16T09:58:54.378Z,99652.53
2022-12-16T10:01:42.840Z,99652.38
2022-12-16T10:04:30.130Z,99649.91
2022-12-16T10:07:18.549Z,99647.63
2022-12-16T10:10:39.360Z,99658.78
2022-12-16T10:13:56.329Z,99658.78
2022-12-16T10:17:10.750Z,99660.59
2022-12-16T10:20:15.532Z,99651.81
2022-12-16T10:23:14.399Z,99648.63
2022-12-16T10:26:27.161Z,99659.03
2022-12-16T10:29:45.802Z,99654.88
2022-12-16T10:33:00.158Z,99653.91
2022-12-16T10:35:52.287Z,99652.22
2022-12-16T10:38:59.031Z,99649.31
2022-12-16T10:41:55.130Z,99656.16
2022-12-16T10:45:03.238Z,99642.25
2022-12-16T10:47:50.210Z,99624.47
2022-12-16T10:50:37.627Z,99612.09
2022-12-16T10:53:35.772Z,99621.78
2022-12-16T10:57:02.712Z,99631.53
2022-12-16T10:59:57.991Z,99647.59
2022-12-16T11:02:47.098Z,99646.38
2022-12-16T11:05:52.058Z,99650.69
2022-12-16T11:09:00.738Z,99659.34
2022-12-16T11:11:49.151Z,99653.09
2022-12-16T11:15:27.542Z,99668.56
2022-12-16T11:18:22.315Z,99669.69
2022-12-16T11:21:36.075Z,99673.84
2022-12-16T11:24:29.062Z,99670.50
2022-12-16T11:27:22.306Z,99666.31
2022-12-16T11:30:33.120Z,99674.16
2022-12-16T11:33:40.445Z,99680.53
2022-12-16T11:36:40.938Z,99678.53
2022-12-16T11:39:34.437Z,99673.53
2022-12-16T11:42:21.778Z,99684.97
2022-12-16T11:45:14.416Z,99677.13
2022-12-16T11:48:20.903Z,99673.38
2022-12-16T11:51:11.657Z,99670.97
2022-12-16T11:54:06.816Z,99673.25
2022-12-16T11:56:57.319Z,99667.50
2022-12-16T11:59:50.476Z,99671.41
2022-12-16T12:03:01.146Z,99673.00
2022-12-16T12:06:16.558Z,99668.94
2022-12-16T12:09:07.086Z,99671.56
2022-12-16T12:12:05.780Z,99663.19
2022-12-16T12:15:01.344Z,99659.28
2022-12-16T12:18:09.843Z,99671.66
2022-12-16T12:21:12.905Z,99670.28
2022-12-16T12:24:41.697Z,99677.00
2022-12-16T12:27:37.325Z,99684.13
2022-12-16T12:30:35.167Z,99682.47
2022-12-16T12:33:34.844Z,99675.38
2022-12-16T12:36:25.140Z,99674.63
2022-12-16T12:39:47.448Z,99684.13
2022-12-16T12:42:34.448Z,99687.66
2022-12-16T12:45:47.415Z,99684.22
2022-12-16T12:49:00.738Z,99676.41
2022-12-16T12:51:51.137Z,99676.72
2022-12-16T12:55:07.885Z,99675.34
2022-12-16T12:57:57.156Z,99674.38
2022-12-16T13:00:44.967Z,99676.75
2022-12-16T13:03:50.381Z,99670.94
2022-12-16T13:06:37.657Z,99662.56
2022-12-16T13:09:52.206Z,99682.72
2022-12-16T13:12:57.017Z,99683.13
2022-12-16T13:15:57.939Z,99681.88
2022-12-16T13:18:49.901Z,99684.97
2022-12-16T13:21:56.733Z,99693.53
2022-12-16T13:25:00.032Z,99687.78
2022-12-16T13:27:48.482Z,99695.63
2022-12-16T13:30:37.169Z,99716.03
2022-12-16T13:33:44.168Z,99704.16
2022-12-16T13:36:32.269Z,99709.03
2022-12-16T13:39:42.967Z,99713.75
2022-12-16T13:43:01.178Z,99717.09
2022-12-16T13:45:57.613Z,99721.88
2022-12-16T13:49:05.038Z,99734.69
2022-12-16T13:51:58.247Z,99734.44
2022-12-16T13:54:50.879Z,99732.03
2022-12-16T13:57:40.035Z,99736.66
2022-12-16T14:00:37.424Z,99734.25
2022-12-16T14:03:31.492Z,99742.50
2022-12-16T14:06:19.070Z,99739.41
2022-12-16T14:09:07.472Z,99739.72
2022-12-16T14:12:30.463Z,99746.97
2022-12-16T14:15:26.381Z,99755.31
2022-12-16T14:18:23.617Z,99750.28
2022-12-16T14:21:14.879Z,99766.44
2022-12-16T14:24:12.961Z,99763.09
2022-12-16T14:27:01.747Z,99772.28
2022-12-16T14:29:50.603Z,99769.91
2022-12-16T14:32:46.916Z,99774.50
2022-12-16T14:35:39.206Z,99776.44
2022-12-16T14:38:47.668Z,99783.69
2022-12-16T14:41:43.048Z,99776.03
2022-12-16T14:44:42.520Z,99774.34
2022-12-16T14:47:38.260Z,99777.00
2022-12-16T14:50:52.483Z,99782.53
2022-12-16T14:53:41.190Z,99788.13
2022-12-16T14:56:33.888Z,99781.13
2022-12-16T14:59:38.047Z,99793.84
2022-12-16T15:02:52.232Z,99786.97
2022-12-16T15:05:39.802Z,99797.84
2022-12-16T15:08:30.651Z,99801.44
2022-12-16T15:11:17.940Z,99801.72
2022-12-16T15:14:06.288Z,99808.81
2022-12-16T15:16:54.004Z,99812.56
2022-12-16T15:19:41.931Z,99809.22
2022-12-16T15:22:37.961Z,99815.47
2022-12-16T15:25:25.732Z,99812.28
2022-12-16T15:28:14.287Z,99815.03
2022-12-16T15:31:04.006Z,99817.00
2022-12-16T15:33:54.298Z,99816.53
2022-12-16T15:36:50.589Z,99811.94
2022-12-16T15:39:43.062Z,99828.81
2022-12-16T15:42:56.583Z,99834.31
2022-12-16T15:45:49.259Z,99841.56
2022-12-16T15:48:44.928Z,99831.22
2022-12-16T15:52:08.285Z,99832.44
2022-12-16T15:55:10.676Z,99845.56
2022-12-16T15:57:58.969Z,99846.66
2022-12-16T16:00:50.444Z,99849.31
2022-12-16T16:03:46.734Z,99848.59
2022-12-16T16:06:45.295Z,99841.38
2022-12-16T16:09:47.545Z,99842.78
2022-12-16T16:12:37.063Z,99845.03
2022-12-16T16:15:25.628Z,99836.22
2022-12-16T16:18:14.986Z,99850.81
2022-12-16T16:21:02.374Z,99860.59
2022-12-16T16:23:49.763Z,99856.72
2022-12-16T16:26:37.897Z,99862.50
2022-12-16T16:29:25.426Z,99869.25
2022-12-16T16:32:12.883Z,99882.41
2022-12-16T16:35:01.452Z,99880.63
2022-12-16T16:37:48.663Z,99875.34
2022-12-16T16:41:12.355Z,99866.31
2022-12-16T16:43:59.493Z,99874.81
2022-12-16T16:46:57.993Z,99865.59
2022-12-16T16:49:53.165Z,99873.22
2022-12-16T16:52:41.838Z,99872.94
2022-12-16T16:55:39.564Z,99868.06
2022-12-16T16:58:33.096Z,99869.91
2022-12-16T17:01:20.247Z,99864.16
2022-12-16T17:04:07.870Z,99871.44
2022-12-16T17:06:56.070Z,99881.09
2022-12-16T17:09:43.724Z,99871.00
2022-12-16T17:12:41.368Z,99883.44
2022-12-16T17:15:38.240Z,99877.69
2022-12-16T17:18:25.900Z,99869.31
2022-12-16T17:21:13.820Z,99856.72
2022-12-16T17:24:00.893Z,99858.38
2022-12-16T17:26:47.978Z,99860.88
2022-12-16T17:29:42.363Z,99869.53
2022-12-16T17:32:30.125Z,99878.06
2022-12-16T17:35:17.123Z,99882.13
2022-12-16T17:38:04.328Z,99886.25
2022-12-16T17:40:51.230Z,99885.41
2022-12-16T17:43:39.087Z,99891.25
2022-12-16T17:46:29.180Z,99884.97
2022-12-16T17:49:18.232Z,99892.97
2022-12-16T17:52:05.467Z,99898.69
2022-12-16T17:54:53.693Z,99898.34
2022-12-16T17:57:41.086Z,99900.34
2022-12-16T18:00:29.018Z,99901.72
2022-12-16T18:03:16.374Z,99908.25
2022-12-16T18:06:04.743Z,99893.09
2022-12-16T18:08:52.005Z,99893.03
2022-12-16T18:11:39.564Z,99888.13
2022-12-16T18:14:27.064Z,99888.97
2022-12-16T18:17:16.164Z,99890.72
2022-12-16T18:20:03.624Z,99893.81
2022-12-16T18:22:51.929Z,99900.13
2022-12-16T18:25:39.214Z,99899.47
2022-12-16T18:28:27.783Z,99907.72
2022-12-16T18:31:18.153Z,99908.34
2022-12-16T18:34:05.866Z,99902.19
2022-12-16T18:36:53.090Z,99906.28
2022-12-16T18:39:40.633Z,99913.50
2022-12-16T18:42:29.843Z,99925.84
2022-12-16T18:45:17.385Z,99927.28
2022-12-16T18:48:04.773Z,99923.00
2022-12-16T18:50:53.052Z,99929.50
2022-12-16T18:53:43.586Z,99929.78
2022-12-16T18:56:32.039Z,99929.91
2022-12-16T18:59:19.362Z,99922.66
2022-12-16T19:02:07.012Z,99930.97
2022-12-16T19:04:54.386Z,99935.16
2022-12-16T19:07:41.808Z,99942.63
2022-12-16T19:10:29.075Z,99932.16
2022-12-16T19:13:16.953Z,99923.47
2022-12-16T19:16:16.749Z,99931.63
2022-12-16T19:19:04.712Z,99927.41
2022-12-16T19:21:56.512Z,99929.94
2022-12-16T19:24:45.647Z,99939.56
2022-12-16T19:27:32.988Z,99943.63
2022-12-16T19:30:20.802Z,99942.44
2022-12-16T19:33:09.217Z,99936.44
2022-12-16T19:35:57.164Z,99947.47
2022-12-16T19:38:44.380Z,99947.00
2022-12-16T19:41:35.883Z,99948.25
2022-12-16T19:44:23.755Z,99955.63
2022-12-16T19:47:11.101Z,99949.34
2022-12-16T19:49:58.566Z,99947.13
2022-12-16T19:52:48.074Z,99951.59
2022-12-16T19:55:35.336Z,99958.06
2022-12-16T19:58:22.955Z,99961.31
2022-12-16T20:01:10.361Z,99964.13
2022-12-16T20:03:57.928Z,99966.38
2022-12-16T20:06:45.264Z,99968.34
2022-12-16T20:09:33.399Z,99972.53
2022-12-16T20:12:20.752Z,99973.53
2022-12-16T20:15:08.388Z,99984.59
2022-12-16T20:17:58.472Z,99989.38
2022-12-16T20:20:46.143Z,99991.16
2022-12-16T20:23:33.133Z,99989.66
2022-12-16T20:26:20.982Z,99990.31
2022-12-16T20:29:08.105Z,99993.69
2022-12-16T20:31:55.937Z,100000.50
2022-12-16T20:34:44.780Z,99994.06
2022-12-16T20:37:32.204Z,100005.69
2022-12-16T20:40:19.219Z,100008.88
2022-12-16T20:43:06.573Z,99997.41
2022-12-16T20:45:56.434Z,100005.03
2022-12-16T20:48:44.417Z,100015.69
2022-12-16T20:51:31.497Z,100022.09
2022-12-16T20:54:18.897Z,100017.91
2022-12-16T20:57:12.396Z,100019.44
2022-12-16T21:00:17.954Z,100034.03
2022-12-16T21:03:06.022Z,100038.66
2022-12-16T21:05:56.028Z,100035.56
2022-12-16T21:08:43.300Z,100042.03
2022-12-16T21:11:31.211Z,100045.66
2022-12-16T21:14:20.270Z,100050.28
2022-12-16T21:17:08.317Z,100053.94
2022-12-16T21:19:56.141Z,100052.69
2022-12-16T21:22:43.647Z,100061.13
2022-12-16T21:25:30.988Z,100059.41
2022-12-16T21:28:18.837Z,100059.41
2022-12-16T21:31:05.893Z,100062.22
2022-12-16T21:33:53.357Z,100075.78
2022-12-16T21:36:43.072Z,100075.09
2022-12-16T21:39:30.690Z,100078.69
2022-12-16T21:42:17.883Z,100070.84
2022-12-16T21:45:05.477Z,100080.19
2022-12-16T21:47:55.919Z,100070.13
2022-12-16T21:50:43.901Z,100074.31
2022-12-16T21:53:31.189Z,100073.59
2022-12-16T21:56:18.721Z,100079.59
2022-12-16T21:59:06.005Z,100079.59
2022-12-16T22:01:53.803Z,100085.06
2022-12-16T22:04:44.182Z,100090.66
2022-12-16T22:07:31.607Z,100094.31
2022-12-16T22:10:18.867Z,100097.22
2022-12-16T22:13:06.727Z,100102.44
2022-12-16T22:15:58.115Z,100111.38
2022-12-16T22:18:48.648Z,100104.13
2022-12-16T22:21:35.699Z,100116.03
2022-12-16T22:24:23.154Z,100127.13
2022-12-16T22:27:10.488Z,100113.13
2022-12-16T22:29:58.529Z,100117.31
2022-12-16T22:32:46.371Z,100123.22
2022-12-16T22:35:34.553Z,100111.44
2022-12-16T22:38:21.919Z,100100.41
2022-12-16T22:41:16.210Z,100114.97
2022-12-16T22:44:04.476Z,100119.88
2022-12-16T22:46:56.082Z,100124.22
2022-12-16T22:49:43.364Z,100121.41
2022-12-16T22:52:32.120Z,100123.91
2022-12-16T22:55:18.940Z,100120.00
2022-12-16T22:58:06.356Z,100128.50
2022-12-16T23:00:53.439Z,100126.66
2022-12-16T23:03:44.327Z,100126.22
2022-12-16T23:06:31.891Z,100120.34
2022-12-16T23:09:19.320Z,100134.06
2022-12-16T23:12:06.479Z,100132.63
2022-12-16T23:14:56.662Z,100134.03
2022-12-16T23:17:44.107Z,100126.44
2022-12-16T23:20:31.912Z,100132.03
2022-12-16T23:23:19.646Z,100136.91
2022-12-16T23:26:19.767Z,100132.13
2022-12-16T23:29:15.647Z,100128.06
2022-12-16T23:32:03.257Z,100138.00
2022-12-16T23:34:50.588Z,100126.66
2022-12-16T23:37:37.974Z,100127.22
2022-12-16T23:40:25.559Z,100123.81
2022-12-16T23:43:13.766Z,100125.75
2022-12-16T23:46:02.873Z,100119.75
2022-12-16T23:48:50.125Z,100122.69
2022-12-16T23:51:37.382Z,100123.94
2022-12-16T23:54:25.948Z,100132.97
2022-12-16T23:57:13.198Z,100148.34
